Time;durP1;ratioP1;P1;durP2;ratioP2;P2;SDS_P1;SDS_P2;PMS_P1;PMS_P2;Temp;Humidity;BMP_temperature;BMP_pressure;BME280_temperature;BME280_humidity;BME280_pressure;Samples;Min_cycle;Max_cycle;Signal;HPM_P1;HPM_P2
2022/10/09 00:00:58;;;;;;;2.95;2.75;;;6.00;99.90;;;;;;476098;246;28095;-80
2022/10/09 00:03:00;;;;;;;3.17;2.95;;;6.00;99.90;;;;;;476140;250;27965;-78
2022/10/09 00:05:01;;;;;;;3.55;2.50;;;6.10;99.90;;;;;;475970;249;27578;-81
2022/10/09 00:07:02;;;;;;;3.65;2.75;;;6.10;99.90;;;;;;476025;246;27513;-79
2022/10/09 00:09:03;;;;;;;2.78;2.58;;;6.00;99.90;;;;;;476263;246;27514;-78
2022/10/09 00:11:05;;;;;;;3.03;2.83;;;5.90;99.90;;;;;;476393;245;27512;-78
2022/10/09 00:13:06;;;;;;;4.45;2.70;;;5.90;99.90;;;;;;476281;249;27558;-79
2022/10/09 00:15:07;;;;;;;3.00;2.80;;;5.80;99.90;;;;;;476242;249;28029;-81
2022/10/09 00:17:08;;;;;;;3.20;2.80;;;5.80;99.90;;;;;;476212;245;28081;-80
2022/10/09 00:19:10;;;;;;;3.50;2.62;;;5.80;99.90;;;;;;476218;250;27503;-78
2022/10/09 00:21:11;;;;;;;3.40;2.70;;;5.90;99.90;;;;;;476282;250;27583;-80
2022/10/09 00:23:17;;;;;;;2.60;2.33;;;5.80;99.90;;;;;;476294;250;27436;-80
2022/10/09 00:25:14;;;;;;;3.45;3.10;;;5.90;99.90;;;;;;476105;247;27518;-80
2022/10/09 00:27:15;;;;;;;2.70;2.50;;;5.90;99.90;;;;;;476090;246;27510;-81
2022/10/09 00:29:16;;;;;;;2.80;2.60;;;5.90;99.90;;;;;;476129;250;27513;-78
2022/10/09 00:31:17;;;;;;;3.12;2.80;;;5.90;99.90;;;;;;476116;250;27917;-79
2022/10/09 00:33:25;;;;;;;3.00;2.70;;;;;;;;;;476160;250;28061;-79
2022/10/09 00:35:38;;;;;;;3.20;2.90;;;;;;;;;;476457;250;26291;-78
2022/10/09 00:37:50;;;;;;;3.33;2.50;;;;;;;;;;476392;245;26241;-78
2022/10/09 00:40:02;;;;;;;3.12;2.83;;;;;;;;;;476123;250;26273;-78
2022/10/09 00:42:15;;;;;;;4.10;3.25;;;;;;;;;;476386;248;26249;-79
2022/10/09 00:44:26;;;;;;;3.78;3.00;;;;;;;;;;476380;246;26347;-79
2022/10/09 00:46:37;;;;;;;3.62;2.85;;;;;;;;;;476198;245;26248;-79
2022/10/09 00:48:48;;;;;;;4.37;3.20;;;;;;;;;;476365;249;26265;-79
2022/10/09 00:50:58;;;;;;;2.90;2.58;;;;;;;;;;476418;248;26359;-79
2022/10/09 00:53:08;;;;;;;3.17;2.87;;;;;;;;;;476296;250;26293;-79
2022/10/09 00:55:18;;;;;;;2.70;2.50;;;;;;;;;;476297;250;26246;-79
2022/10/09 00:57:28;;;;;;;3.10;2.80;;;;;;;;;;476281;246;26292;-79
2022/10/09 00:59:38;;;;;;;3.45;3.00;;;;;;;;;;476336;250;26257;-79
2022/10/09 01:01:48;;;;;;;2.62;2.40;;;;;;;;;;476379;250;26355;-79
2022/10/09 01:03:57;;;;;;;2.58;2.37;;;;;;;;;;476369;250;26931;-79
2022/10/09 01:06:06;;;;;;;3.80;2.90;;;;;;;;;;476384;245;26229;-79
2022/10/09 01:08:15;;;;;;;4.18;3.12;;;;;;;;;;476275;250;26342;-79
2022/10/09 01:10:24;;;;;;;3.05;2.70;;;;;;;;;;476319;250;26760;-79
2022/10/09 01:12:35;;;;;;;2.67;2.47;;;;;;;;;;476319;250;26667;-79
2022/10/09 01:14:45;;;;;;;3.30;2.70;;;;;;;;;;476254;248;26772;-78
2022/10/09 01:16:55;;;;;;;4.10;3.10;;;;;;;;;;476100;246;26370;-78
2022/10/09 01:19:05;;;;;;;5.43;2.85;;;;;;;;;;476263;250;26249;-78
2022/10/09 01:21:15;;;;;;;3.75;3.03;;;;;;;;;;476153;249;26249;-78
2022/10/09 01:23:25;;;;;;;3.47;3.00;;;;;;;;;;476150;250;26265;-80
2022/10/09 01:25:35;;;;;;;7.55;3.42;;;;;;;;;;476142;250;26253;-79
2022/10/09 01:27:44;;;;;;;5.87;3.37;;;;;;;;;;476287;246;26240;-79
2022/10/09 01:29:53;;;;;;;4.60;3.35;;;;;;;;;;476235;250;26257;-79
2022/10/09 01:32:00;;;;;;;3.67;3.30;;;;;;;;;;476249;250;26339;-79
2022/10/09 01:34:08;;;;;;;4.82;3.17;;;;;;;;;;476105;248;26269;-79
2022/10/09 01:36:13;;;;;;;3.20;2.72;;;;;;;;;;476099;246;26778;-79
2022/10/09 01:38:21;;;;;;;3.90;3.35;;;;;;;;;;476323;250;26819;-79
2022/10/09 01:40:30;;;;;;;4.60;3.05;;;;;;;;;;476299;250;26324;-79
2022/10/09 01:42:38;;;;;;;3.55;3.25;;;;;;;;;;476450;250;26842;-79
2022/10/09 01:44:46;;;;;;;4.78;3.25;;;;;;;;;;476350;250;26245;-79
2022/10/09 01:46:54;;;;;;;4.35;3.58;;;;;;;;;;476034;246;26276;-78
2022/10/09 01:49:02;;;;;;;3.92;3.33;;;;;;;;;;476110;250;26351;-78
2022/10/09 01:51:09;;;;;;;3.78;3.30;;;;;;;;;;476184;250;26876;-78
2022/10/09 01:53:16;;;;;;;4.12;3.70;;;;;;;;;;476375;250;26846;-79
2022/10/09 01:55:26;;;;;;;3.87;3.40;;;;;;;;;;476083;250;26364;-78
2022/10/09 01:57:33;;;;;;;3.00;2.80;;;;;;;;;;476058;246;26369;-79
2022/10/09 01:59:42;;;;;;;3.83;3.28;;;;;;;;;;476186;245;26345;-78
2022/10/09 02:01:50;;;;;;;3.33;3.00;;;;;;;;;;476382;250;26328;-79
2022/10/09 02:03:59;;;;;;;3.58;3.03;;;;;;;;;;476292;244;26395;-79
2022/10/09 02:06:07;;;;;;;4.57;2.90;;;;;;;;;;476270;246;26918;-78
2022/10/09 02:08:15;;;;;;;3.83;3.35;;;;;;;;;;476389;245;26241;-79
2022/10/09 02:10:20;;;;;;;3.72;3.30;;;;;;;;;;476296;250;26253;-78
2022/10/09 02:12:29;;;;;;;3.00;2.75;;;;;;;;;;476406;250;26336;-79
2022/10/09 02:14:38;;;;;;;4.25;3.47;;;;;;;;;;476390;250;26253;-78
2022/10/09 02:16:44;;;;;;;3.42;3.12;;;;;;;;;;476190;246;26253;-79
2022/10/09 02:18:51;;;;;;;3.55;3.25;;;;;;;;;;476296;250;26245;-79
2022/10/09 02:20:59;;;;;;;5.20;2.85;;;;;;;;;;476422;245;26277;-79
2022/10/09 02:23:05;;;;;;;3.50;3.20;;;;;;;;;;476389;244;26260;-79
2022/10/09 02:25:11;;;;;;;2.92;2.65;;;;;;;;;;476440;250;26420;-78
2022/10/09 02:27:17;;;;;;;3.22;2.92;;;;;;;;;;476340;246;26257;-78
2022/10/09 02:29:23;;;;;;;4.47;2.55;;;;;;;;;;476399;244;26271;-79
2022/10/09 02:31:27;;;;;;;3.00;2.70;;;;;;;;;;476275;250;26376;-79
2022/10/09 02:33:35;;;;;;;2.92;2.65;;;;;;;;;;476414;250;26434;-79
2022/10/09 02:35:40;;;;;;;2.95;2.75;;;;;;;;;;476510;250;26371;-79
2022/10/09 02:37:47;;;;;;;2.75;2.55;;;;;;;;;;476368;246;26265;-80
2022/10/09 02:39:51;;;;;;;2.78;2.58;;;;;;;;;;476398;243;26240;-80
2022/10/09 02:41:57;;;;;;;2.90;2.70;;;;;;;;;;476521;243;26237;-79
2022/10/09 02:44:02;;;;;;;2.80;2.60;;;;;;;;;;476515;244;26372;-80
2022/10/09 02:46:07;;;;;;;2.65;2.50;;;;;;;;;;476377;244;26231;-79
2022/10/09 02:48:12;;;;;;;2.70;2.50;;;;;;;;;;476303;250;26387;-80
2022/10/09 02:50:17;;;;;;;3.47;2.72;;;;;;;;;;476279;250;26848;-78
2022/10/09 02:52:23;;;;;;;2.90;2.70;;;;;;;;;;476286;249;26336;-79
2022/10/09 02:54:27;;;;;;;6.20;2.55;;;;;;;;;;476425;250;26248;-80
2022/10/09 02:56:31;;;;;;;2.37;2.20;;;;;;;;;;476235;246;26253;-80
2022/10/09 02:58:36;;;;;;;2.40;2.20;;;;;;;;;;476439;243;26340;-79
2022/10/09 03:00:40;;;;;;;2.40;2.30;;;;;;;;;;476423;250;26350;-79
2022/10/09 03:02:46;;;;;;;3.00;2.62;;;;;;;;;;476451;243;26257;-80
2022/10/09 03:04:51;;;;;;;2.42;2.20;;;;;;;;;;476514;242;26240;-80
2022/10/09 03:06:56;;;;;;;2.20;2.10;;;;;;;;;;476450;243;26256;-80
2022/10/09 03:09:00;;;;;;;2.17;2.00;;;;;;;;;;476533;243;26257;-80
2022/10/09 03:11:05;;;;;;;2.20;2.10;;;;;;;;;;476508;243;26320;-80
2022/10/09 03:13:11;;;;;;;2.67;2.45;;;;;;;;;;473260;247;26251;-80
2022/10/09 03:15:16;;;;;;;2.30;2.20;;;;;;;;;;493121;241;26303;-80
2022/10/09 03:17:24;;;;;;;2.37;2.17;;;;;;;;;;481789;247;26332;-80
2022/10/09 03:19:30;;;;;;;1.90;1.80;;;;;;;;;;492991;241;26301;-79
2022/10/09 03:21:37;;;;;;;2.00;1.90;;;;;;;;;;481704;245;26342;-79
2022/10/09 03:23:43;;;;;;;2.28;2.10;;;;;;;;;;492996;242;26331;-79
2022/10/09 03:25:49;;;;;;;2.20;2.10;;;;;;;;;;481706;245;26316;-80
2022/10/09 03:27:54;;;;;;;2.42;2.20;;;;;;;;;;492884;239;26363;-80
2022/10/09 03:30:01;;;;;;;2.42;2.22;;;;;;;;;;481787;246;26380;-80
2022/10/09 03:32:08;;;;;;;3.37;2.15;;;;;;;;;;494550;240;26219;-80
2022/10/09 03:34:16;;;;;;;2.00;1.70;;;;;;;;;;494641;241;26324;-80
2022/10/09 03:36:21;;;;;;;2.78;2.58;;;;;;;;;;494537;237;26245;-80
2022/10/09 03:38:27;;;;;;;2.17;2.08;;;;;;;;;;494511;241;26214;-80
2022/10/09 03:40:34;;;;;;;2.03;1.92;;;;;;;;;;494531;241;26222;-79
2022/10/09 03:42:39;;;;;;;2.08;1.87;;;;;;;;;;494679;241;26797;-80
2022/10/09 03:44:44;;;;;;;2.00;1.90;;;;;;;;;;494670;235;26241;-80
2022/10/09 03:46:51;;;;;;;2.12;1.95;;;;;;;;;;494579;237;26225;-80
2022/10/09 03:48:59;;;;;;;2.30;2.20;;;;;;;;;;494679;240;26339;-80
2022/10/09 03:51:07;;;;;;;1.95;1.85;;;;;;;;;;494690;241;26210;-80
2022/10/09 03:53:16;;;;;;;1.90;1.80;;;;;;;;;;494688;241;26225;-80
2022/10/09 03:55:24;;;;;;;2.15;1.98;;;;;;;;;;494678;241;26285;-80
2022/10/09 03:57:34;;;;;;;1.90;1.80;;;;;;;;;;494624;237;26316;-80
2022/10/09 03:59:43;;;;;;;2.60;2.00;;;;;;;;;;494716;241;26206;-80
2022/10/09 04:01:52;;;;;;;2.15;2.00;;;;;;;;;;494697;240;26194;-79
2022/10/09 04:04:02;;;;;;;2.72;1.85;;;;;;;;;;494701;241;26230;-80
2022/10/09 04:06:12;;;;;;;2.00;1.90;;;;;;;;;;494506;237;26376;-79
2022/10/09 04:08:21;;;;;;;2.33;2.12;;;;;;;;;;494614;241;26222;-80
2022/10/09 04:10:32;;;;;;;2.20;2.10;;;;;;;;;;494611;240;26229;-79
2022/10/09 04:12:43;;;;;;;2.20;2.00;;;;;;;;;;494663;241;26186;-80
2022/10/09 04:14:53;;;;;;;2.10;2.00;;;;;;;;;;494602;241;26288;-79
2022/10/09 04:17:03;;;;;;;2.47;2.28;;;;;;;;;;494618;237;26297;-80
2022/10/09 04:19:06;;;;;;;1.90;1.80;;;;;;;;;;494715;241;26205;-80
2022/10/09 04:21:07;;;;;;;2.33;2.12;;;4.80;99.90;;;;;;494727;241;26198;-80
2022/10/09 04:23:09;;;;;;;1.90;1.80;;;4.80;99.90;;;;;;494700;240;27951;-80
2022/10/09 04:25:10;;;;;;;2.12;2.03;;;4.80;99.90;;;;;;494680;236;27302;-79
2022/10/09 04:27:11;;;;;;;2.15;2.00;;;4.70;99.90;;;;;;494578;237;27408;-79
2022/10/09 04:29:12;;;;;;;2.67;2.15;;;4.70;99.90;;;;;;494647;241;27413;-79
2022/10/09 04:31:14;;;;;;;2.30;2.20;;;4.70;99.90;;;;;;494623;240;27318;-78
2022/10/09 04:33:15;;;;;;;2.50;2.30;;;4.90;99.90;;;;;;494662;241;27314;-80
2022/10/09 04:35:16;;;;;;;2.62;1.95;;;5.10;99.90;;;;;;494721;241;27389;-80
2022/10/09 04:37:17;;;;;;;2.22;2.03;;;5.30;99.90;;;;;;494617;237;27318;-80
2022/10/09 04:39:19;;;;;;;2.05;1.95;;;5.50;99.90;;;;;;494725;241;27296;-78
2022/10/09 04:41:20;;;;;;;3.90;2.50;;;5.70;99.90;;;;;;494428;241;27334;-80
2022/10/09 04:43:21;;;;;;;2.58;2.30;;;5.80;99.90;;;;;;494581;236;27345;-79
2022/10/09 04:45:22;;;;;;;2.85;2.30;;;5.80;99.90;;;;;;494684;241;27940;-80
2022/10/09 04:47:24;;;;;;;1.80;1.70;;;5.70;99.90;;;;;;494542;237;27310;-79
2022/10/09 04:49:25;;;;;;;2.47;2.28;;;5.70;99.90;;;;;;494489;239;27326;-80
2022/10/09 04:51:26;;;;;;;2.00;1.90;;;5.80;99.90;;;;;;494546;235;27292;-79
2022/10/09 04:53:27;;;;;;;2.37;2.10;;;5.80;99.90;;;;;;494470;240;27417;-79
2022/10/09 04:55:33;;;;;;;4.53;1.90;;;;;;;;;;494500;240;27465;-79
2022/10/09 04:57:45;;;;;;;2.17;2.00;;;;;;;;;;494468;237;26212;-79
2022/10/09 04:59:51;;;;;;;2.22;2.10;;;;;;;;;;494506;241;26216;-80
2022/10/09 05:02:03;;;;;;;1.90;1.80;;;;;;;;;;494411;241;26821;-79
2022/10/09 05:04:15;;;;;;;3.08;1.80;;;;;;;;;;494414;241;26348;-79
2022/10/09 05:06:28;;;;;;;2.22;1.90;;;;;;;;;;494570;237;26216;-80
2022/10/09 05:08:41;;;;;;;2.12;2.03;;;;;;;;;;494660;241;26228;-79
2022/10/09 05:10:53;;;;;;;3.17;2.15;;;;;;;;;;494474;241;26322;-79
2022/10/09 05:13:06;;;;;;;1.92;1.83;;;;;;;;;;494451;241;26368;-79
2022/10/09 05:15:19;;;;;;;2.37;2.28;;;;;;;;;;494450;241;26318;-80
2022/10/09 05:17:32;;;;;;;4.05;2.20;;;;;;;;;;494555;237;26244;-79
2022/10/09 05:19:46;;;;;;;2.22;2.05;;;;;;;;;;494565;241;26765;-79
2022/10/09 05:21:58;;;;;;;2.87;2.50;;;;;;;;;;494672;240;26269;-79
2022/10/09 05:24:05;;;;;;;2.22;2.12;;;;;;;;;;494661;241;26217;-80
2022/10/09 05:26:09;;;;;;;2.50;2.30;;;;;;;;;;494580;237;26875;-80
2022/10/09 05:28:14;;;;;;;2.50;2.40;;;;;;;;;;494657;240;26846;-80
2022/10/09 05:30:18;;;;;;;2.50;2.40;;;;;;;;;;494634;241;26327;-79
2022/10/09 05:32:23;;;;;;;3.47;2.45;;;;;;;;;;494725;240;26225;-80
2022/10/09 05:34:28;;;;;;;2.70;2.50;;;;;;;;;;494691;241;26217;-79
2022/10/09 05:36:31;;;;;;;2.58;2.40;;;;;;;;;;494603;237;26351;-79
2022/10/09 05:38:33;;;;;;;2.53;2.33;;;4.70;99.90;;;;;;494625;237;26966;-80
2022/10/09 05:40:38;;;;;;;2.40;2.20;;;;;;;;;;494670;241;27431;-80
2022/10/09 05:42:43;;;;;;;2.20;2.10;;;;;;;;;;494619;241;26312;-79
2022/10/09 05:44:48;;;;;;;2.47;2.28;;;;;;;;;;494694;241;26329;-79
2022/10/09 05:46:54;;;;;;;2.12;2.03;;;;;;;;;;494613;237;26236;-79
2022/10/09 05:48:59;;;;;;;2.35;2.25;;;;;;;;;;494677;240;26303;-80
2022/10/09 05:51:06;;;;;;;2.53;2.30;;;;;;;;;;493900;241;26181;-79
2022/10/09 05:53:13;;;;;;;2.37;2.10;;;;;;;;;;492464;241;26174;-79
2022/10/09 05:55:20;;;;;;;2.00;1.90;;;;;;;;;;494674;241;26242;-81
2022/10/09 05:57:26;;;;;;;2.15;2.05;;;;;;;;;;494454;237;26332;-79
2022/10/09 05:59:32;;;;;;;2.70;2.50;;;;;;;;;;494665;238;26960;-80
2022/10/09 06:01:39;;;;;;;2.20;2.10;;;;;;;;;;494613;241;26240;-79
2022/10/09 06:03:45;;;;;;;2.37;2.10;;;;;;;;;;494395;237;26248;-79
2022/10/09 06:05:52;;;;;;;2.28;2.17;;;;;;;;;;494283;241;26951;-79
2022/10/09 06:07:58;;;;;;;1.90;1.80;;;;;;;;;;494055;237;26368;-78
2022/10/09 06:10:04;;;;;;;2.67;2.50;;;;;;;;;;493854;241;26831;-78
2022/10/09 06:12:12;;;;;;;2.70;2.33;;;;;;;;;;494058;241;26335;-79
2022/10/09 06:14:20;;;;;;;2.78;2.40;;;;;;;;;;494220;241;27011;-79
2022/10/09 06:16:26;;;;;;;2.40;2.22;;;;;;;;;;493959;237;26329;-79
2022/10/09 06:18:37;;;;;;;2.20;2.10;;;;;;;;;;494409;241;26250;-79
2022/10/09 06:20:43;;;;;;;2.08;1.98;;;;;;;;;;488658;237;26288;-79
2022/10/09 06:22:53;;;;;;;2.47;2.37;;;;;;;;;;485314;245;26285;-79
2022/10/09 06:25:01;;;;;;;2.10;2.00;;;;;;;;;;485354;241;26778;-80
2022/10/09 06:27:11;;;;;;;2.45;2.28;;;;;;;;;;488482;241;26691;-78
2022/10/09 06:29:20;;;;;;;2.45;2.30;;;;;;;;;;493977;241;26332;-79
2022/10/09 06:31:30;;;;;;;2.62;2.42;;;;;;;;;;494206;237;26316;-77
2022/10/09 06:33:36;;;;;;;2.40;2.20;;;;;;;;;;494421;240;26391;-78
2022/10/09 06:35:46;;;;;;;2.03;1.92;;;;;;;;;;494391;237;26262;-78
2022/10/09 06:37:56;;;;;;;2.67;2.47;;;;;;;;;;494376;237;26301;-79
2022/10/09 06:40:06;;;;;;;3.00;2.70;;;;;;;;;;494452;241;26354;-80
2022/10/09 06:42:16;;;;;;;2.30;2.20;;;;;;;;;;494678;240;26851;-79
2022/10/09 06:44:24;;;;;;;2.25;2.15;;;;;;;;;;494381;241;26361;-79
2022/10/09 06:46:33;;;;;;;2.33;2.22;;;;;;;;;;494007;237;26329;-78
2022/10/09 06:48:42;;;;;;;2.17;2.03;;;;;;;;;;495683;237;26277;-79
2022/10/09 06:50:50;;;;;;;2.45;2.25;;;;;;;;;;490344;236;26878;-80
2022/10/09 06:53:01;;;;;;;2.40;2.30;;;;;;;;;;483645;245;26815;-80
2022/10/09 06:55:11;;;;;;;2.20;2.10;;;;;;;;;;483274;245;26347;-78
2022/10/09 06:57:22;;;;;;;3.40;2.03;;;;;;;;;;483139;243;26347;-77
2022/10/09 06:59:32;;;;;;;2.60;2.17;;;;;;;;;;483313;245;26867;-80
2022/10/09 07:01:43;;;;;;;2.87;2.50;;;;;;;;;;483115;245;26355;-79
2022/10/09 07:03:54;;;;;;;2.67;2.50;;;;;;;;;;487697;241;26384;-79
2022/10/09 07:06:03;;;;;;;3.67;2.97;;;;;;;;;;493934;241;26910;-78
2022/10/09 07:08:13;;;;;;;2.90;2.22;;;;;;;;;;494135;239;26361;-79
2022/10/09 07:10:24;;;;;;;2.72;2.53;;;;;;;;;;493948;237;26309;-79
2022/10/09 07:12:34;;;;;;;2.42;2.22;;;;;;;;;;495245;237;26302;-78
2022/10/09 07:14:44;;;;;;;2.60;2.40;;;;;;;;;;494253;237;26348;-79
2022/10/09 07:16:52;;;;;;;3.33;3.03;;;;;;;;;;493808;237;26968;-80
2022/10/09 07:19:02;;;;;;;3.65;3.25;;;;;;;;;;493967;241;26355;-79
2022/10/09 07:21:06;;;;;;;6.85;3.05;;;;;;;;;;493780;241;26340;-79
2022/10/09 07:23:13;;;;;;;6.43;3.65;;;;;;;;;;493935;241;26356;-79
2022/10/09 07:25:19;;;;;;;5.43;3.70;;;;;;;;;;493970;241;26348;-80
2022/10/09 07:27:24;;;;;;;6.55;4.07;;;;;;;;;;493846;237;26787;-78
2022/10/09 07:29:28;;;;;;;4.25;3.85;;;;;;;;;;494108;241;26832;-80
2022/10/09 07:31:30;;;;;;;7.90;4.37;;;;;;;;;;493949;241;26345;-80
2022/10/09 07:33:32;;;;;;;8.57;4.03;;;;;;;;;;493929;241;26344;-78
2022/10/09 07:35:35;;;;;;;6.73;4.60;;;;;;;;;;493904;241;28115;-79
2022/10/09 07:37:37;;;;;;;6.00;4.17;;;;;;;;;;493998;237;27111;-80
2022/10/09 07:39:40;;;;;;;7.80;4.10;;;;;;;;;;494079;241;27390;-80
2022/10/09 07:41:42;;;;;;;5.30;3.70;;;;;;;;;;494150;241;27599;-79
2022/10/09 07:43:45;;;;;;;6.23;3.77;;;;;;;;;;494099;241;26428;-79
2022/10/09 07:45:48;;;;;;;4.57;3.60;;;;;;;;;;494170;236;26813;-78
2022/10/09 07:47:51;;;;;;;6.13;4.07;;;;;;;;;;494150;237;26429;-79
2022/10/09 07:49:53;;;;;;;7.23;4.07;;;;;;;;;;494208;241;26690;-79
2022/10/09 07:51:56;;;;;;;7.03;4.00;;;;;;;;;;494052;241;26936;-79
2022/10/09 07:54:00;;;;;;;5.77;3.50;;;;;;;;;;494079;241;26787;-78
2022/10/09 07:56:01;;;;;;;7.80;4.47;;;;;;;;;;493990;237;26514;-78
2022/10/09 07:58:03;;;;;;;6.90;4.20;;;;;;;;;;494150;241;26785;-80
2022/10/09 08:00:05;;;;;;;8.10;4.00;;;;;;;;;;494083;241;26599;-79
2022/10/09 08:02:06;;;;;;;9.90;4.87;;;9.50;99.90;;;;;;494114;235;27396;-78
2022/10/09 08:04:08;;;;;;;6.13;4.33;;;;;;;;;;494136;241;27864;-78
2022/10/09 08:06:11;;;;;;;10.63;5.30;;;;;;;;;;493991;237;27328;-79
2022/10/09 08:08:13;;;;;;;5.70;4.53;;;;;;;;;;494110;241;27173;-81
2022/10/09 08:10:16;;;;;;;6.90;5.17;;;;;;;;;;494097;241;26981;-80
2022/10/09 08:12:17;;;;;;;9.07;4.50;;;9.50;99.90;;;;;;494299;241;27286;-78
2022/10/09 08:14:20;;;;;;;7.70;4.93;;;;;;;;;;494222;236;28516;-79
2022/10/09 08:16:23;;;;;;;7.23;4.60;;;;;;;;;;494196;237;26792;-80
2022/10/09 08:18:26;;;;;;;7.23;4.93;;;;;;;;;;494216;241;26808;-79
2022/10/09 08:20:28;;;;;;;8.00;4.33;;;;;;;;;;494260;241;26928;-79
2022/10/09 08:22:31;;;;;;;7.07;4.70;;;;;;;;;;494077;241;26518;-79
2022/10/09 08:24:34;;;;;;;7.83;4.00;;;;;;;;;;494268;241;26778;-79
2022/10/09 08:26:38;;;;;;;5.17;4.33;;;;;;;;;;494155;236;27287;-80
2022/10/09 08:28:41;;;;;;;6.43;4.43;;;;;;;;;;494131;235;26793;-80
2022/10/09 08:30:42;;;;;;;6.60;4.27;;;9.90;99.90;;;;;;494083;241;26758;-79
2022/10/09 08:32:45;;;;;;;6.13;4.33;;;;;;;;;;494271;241;27908;-80
2022/10/09 08:34:47;;;;;;;7.90;4.27;;;;;;;;;;494269;241;26796;-79
2022/10/09 08:36:49;;;;;;;9.00;4.80;;;;;;;;;;494003;237;26906;-79
2022/10/09 08:38:51;;;;;;;9.43;4.33;;;;;;;;;;494241;241;26969;-80
2022/10/09 08:40:54;;;;;;;11.83;3.77;;;;;;;;;;494071;241;27274;-80
2022/10/09 08:42:56;;;;;;;11.33;4.47;;;;;;;;;;494102;241;27513;-80
2022/10/09 08:44:58;;;;;;;8.37;4.20;;;;;;;;;;494094;241;27469;-81
2022/10/09 08:46:59;;;;;;;7.53;4.60;;;10.50;99.90;;;;;;494013;237;26884;-79
2022/10/09 08:49:02;;;;;;;6.20;4.40;;;;;;;;;;494262;241;27895;-81
2022/10/09 08:51:04;;;;;;;6.63;5.00;;;;;;;;;;494107;241;27176;-80
2022/10/09 08:53:05;;;;;;;8.77;5.20;;;10.60;99.90;;;;;;494245;241;26539;-78
2022/10/09 08:55:06;;;;;;;7.53;5.20;;;10.60;99.90;;;;;;494239;241;27980;-79
2022/10/09 08:57:08;;;;;;;6.17;4.30;;;10.70;99.90;;;;;;493942;236;27971;-80
2022/10/09 08:59:09;;;;;;;6.00;3.57;;;10.90;99.90;;;;;;494094;241;28276;-79
2022/10/09 09:01:10;;;;;;;9.60;4.00;;;10.80;99.90;;;;;;494188;241;27862;-79
2022/10/09 09:03:11;;;;;;;9.67;4.20;;;10.80;99.90;;;;;;494132;241;28358;-78
2022/10/09 09:05:12;;;;;;;4.33;3.30;;;11.00;99.90;;;;;;494623;241;27921;-80
2022/10/09 09:07:14;;;;;;;9.90;3.57;;;11.10;99.90;;;;;;495015;236;27838;-79
2022/10/09 09:09:17;;;;;;;6.20;3.80;;;11.10;99.90;;;;;;495298;240;27945;-81
2022/10/09 09:11:18;;;;;;;5.53;3.50;;;;;;;;;;495247;240;27951;-79
2022/10/09 09:13:19;;;;;;;5.50;3.67;;;11.30;99.90;;;;;;495033;240;26689;-79
2022/10/09 09:15:21;;;;;;;4.70;3.50;;;;;;;;;;494948;241;28275;-79
2022/10/09 09:17:23;;;;;;;6.10;3.53;;;11.30;99.90;;;;;;490601;236;26799;-78
2022/10/09 09:19:24;;;;;;;4.67;3.50;;;11.40;99.90;;;;;;485636;245;27741;-79
2022/10/09 09:21:25;;;;;;;3.63;3.30;;;11.50;99.90;;;;;;485406;245;27758;-79
2022/10/09 09:23:28;;;;;;;5.20;3.70;;;;;;;;;;485443;245;28096;-80
2022/10/09 09:25:29;;;;;;;10.07;4.17;;;11.50;99.90;;;;;;485607;245;26713;-79
2022/10/09 09:27:33;;;;;;;5.07;3.43;;;;;;;;;;485349;241;28222;-80
2022/10/09 09:29:35;;;;;;;4.83;3.43;;;;;;;;;;485503;245;26826;-80
2022/10/09 09:31:38;;;;;;;5.00;3.70;;;;;;;;;;485638;245;28044;-82
2022/10/09 09:33:43;;;;;;;4.57;3.60;;;;;;;;;;485863;245;27524;-80
2022/10/09 09:35:52;;;;;;;5.70;3.50;;;;;;;;;;489661;241;27628;-81
2022/10/09 09:38:00;;;;;;;3.73;2.97;;;;;;;;;;494326;237;26675;-80
2022/10/09 09:40:09;;;;;;;4.80;3.20;;;;;;;;;;494504;241;27465;-79
2022/10/09 09:42:18;;;;;;;3.27;3.07;;;;;;;;;;494369;241;26926;-79
2022/10/09 09:44:27;;;;;;;6.20;3.50;;;;;;;;;;494300;241;26423;-81
2022/10/09 09:46:44;;;;;;;3.30;3.00;;;;;;;;;;493806;237;26901;-81
2022/10/09 09:49:01;;;;;;;6.70;3.33;;;;;;;;;;494114;235;26819;-81
2022/10/09 09:51:19;;;;;;;3.47;3.10;;;;;;;;;;493641;241;26834;-80
2022/10/09 09:53:37;;;;;;;4.67;3.00;;;;;;;;;;485315;241;26941;-79
2022/10/09 09:55:54;;;;;;;5.63;3.57;;;;;;;;;;483918;244;26705;-80
2022/10/09 09:58:11;;;;;;;6.80;3.00;;;;;;;;;;492728;239;26927;-81
2022/10/09 10:00:23;;;;;;;5.73;3.17;;;;;;;;;;493922;241;26700;-80
2022/10/09 10:02:35;;;;;;;4.93;2.83;;;;;;;;;;494245;241;27286;-80
2022/10/09 10:04:48;;;;;;;4.77;3.13;;;;;;;;;;494100;241;26601;-80
2022/10/09 10:07:01;;;;;;;9.07;3.27;;;;;;;;;;493642;238;26839;-79
2022/10/09 10:09:13;;;;;;;6.93;3.33;;;;;;;;;;493894;241;26856;-81
2022/10/09 10:11:26;;;;;;;4.33;3.37;;;;;;;;;;494024;241;26872;-79
2022/10/09 10:13:39;;;;;;;3.57;2.50;;;;;;;;;;494110;237;27031;-80
2022/10/09 10:15:53;;;;;;;5.13;3.10;;;;;;;;;;493871;241;26897;-80
2022/10/09 10:18:07;;;;;;;3.63;2.60;;;;;;;;;;493535;237;27053;-79
2022/10/09 10:20:20;;;;;;;3.37;2.93;;;;;;;;;;493736;241;27096;-79
2022/10/09 10:22:34;;;;;;;4.57;2.43;;;;;;;;;;493999;241;27031;-79
2022/10/09 10:24:48;;;;;;;3.00;2.57;;;;;;;;;;493944;241;27045;-80
2022/10/09 10:27:01;;;;;;;3.47;3.13;;;;;;;;;;493450;237;26966;-80
2022/10/09 10:29:14;;;;;;;3.50;2.33;;;;;;;;;;492319;240;26910;-82
2022/10/09 10:31:28;;;;;;;3.23;2.77;;;;;;;;;;492292;240;27054;-81
2022/10/09 10:33:41;;;;;;;5.23;3.13;;;;;;;;;;492517;240;27518;-79
2022/10/09 10:35:55;;;;;;;5.30;2.80;;;;;;;;;;492502;238;27141;-80
2022/10/09 10:38:09;;;;;;;4.53;2.53;;;;;;;;;;492173;240;27168;-80
2022/10/09 10:40:23;;;;;;;3.30;2.47;;;;;;;;;;493286;240;27078;-80
2022/10/09 10:42:37;;;;;;;2.33;2.13;;;;;;;;;;490518;241;27165;-80
2022/10/09 10:44:51;;;;;;;4.70;2.50;;;;;;;;;;493896;241;27152;-80
2022/10/09 10:47:05;;;;;;;4.30;2.47;;;;;;;;;;493430;237;27222;-78
2022/10/09 10:49:19;;;;;;;3.10;2.30;;;;;;;;;;483917;246;27291;-81
2022/10/09 10:51:32;;;;;;;3.47;2.90;;;;;;;;;;493982;241;27176;-81
2022/10/09 10:53:46;;;;;;;6.20;2.77;;;;;;;;;;484181;246;27143;-80
2022/10/09 10:56:00;;;;;;;3.20;2.40;;;;;;;;;;494005;240;26935;-81
2022/10/09 10:58:14;;;;;;;2.97;2.23;;;;;;;;;;484209;246;27229;-79
2022/10/09 11:00:28;;;;;;;6.43;2.67;;;;;;;;;;493993;240;27094;-80
2022/10/09 11:02:42;;;;;;;2.30;2.10;;;;;;;;;;484037;246;27034;-81
2022/10/09 11:04:57;;;;;;;4.27;2.90;;;;;;;;;;493929;240;26931;-80
2022/10/09 11:07:12;;;;;;;2.90;2.60;;;;;;;;;;483321;242;27091;-80
2022/10/09 11:09:26;;;;;;;4.57;2.37;;;;;;;;;;492294;241;27292;-80
2022/10/09 11:11:41;;;;;;;4.77;2.23;;;;;;;;;;492533;240;27248;-80
2022/10/09 11:13:55;;;;;;;2.70;2.40;;;;;;;;;;492589;241;27441;-80
2022/10/09 11:16:09;;;;;;;4.80;2.53;;;;;;;;;;492565;241;26910;-79
2022/10/09 11:18:24;;;;;;;2.70;2.27;;;;;;;;;;493693;240;27001;-79
2022/10/09 11:20:37;;;;;;;2.70;2.47;;;;;;;;;;494078;241;26955;-82
2022/10/09 11:22:51;;;;;;;2.43;2.00;;;;;;;;;;494130;241;27378;-81
2022/10/09 11:25:05;;;;;;;2.33;2.10;;;;;;;;;;494083;241;26928;-81
2022/10/09 11:27:19;;;;;;;2.90;2.63;;;;;;;;;;494051;241;26908;-81
2022/10/09 11:29:32;;;;;;;4.53;2.40;;;;;;;;;;494181;241;26774;-81
2022/10/09 11:31:45;;;;;;;3.53;2.67;;;;;;;;;;494139;241;27044;-81
2022/10/09 11:33:58;;;;;;;6.47;3.23;;;;;;;;;;494064;241;27368;-80
2022/10/09 11:36:12;;;;;;;3.23;2.53;;;;;;;;;;494042;241;26768;-80
2022/10/09 11:38:25;;;;;;;4.10;2.50;;;;;;;;;;494211;241;27019;-80
2022/10/09 11:40:38;;;;;;;2.00;1.90;;;;;;;;;;494201;241;26998;-81
2022/10/09 11:42:51;;;;;;;2.90;2.50;;;;;;;;;;494018;241;27449;-80
2022/10/09 11:45:04;;;;;;;2.20;2.00;;;;;;;;;;494148;241;26786;-80
2022/10/09 11:47:16;;;;;;;3.10;2.47;;;;;;;;;;493103;240;26918;-79
2022/10/09 11:49:29;;;;;;;3.37;2.00;;;;;;;;;;492431;240;27268;-78
2022/10/09 11:51:42;;;;;;;2.60;2.40;;;;;;;;;;492450;240;27382;-80
2022/10/09 11:53:54;;;;;;;2.30;2.10;;;;;;;;;;492890;240;27014;-82
2022/10/09 11:55:58;;;;;;;3.70;2.10;;;;;;;;;;488898;241;36036;-80
2022/10/09 11:58:15;;;;;;;3.63;3.10;;;;;;;;;;492540;238;26313;-79
2022/10/09 12:00:29;;;;;;;4.23;2.67;;;;;;;;;;492259;240;27346;-80
2022/10/09 12:02:45;;;;;;;5.40;2.80;;;;;;;;;;492295;240;27496;-80
2022/10/09 12:04:59;;;;;;;2.60;1.87;;;;;;;;;;492478;241;26830;-79
2022/10/09 12:07:06;;;;;;;3.13;2.20;;;14.20;99.90;;;;;;492890;238;26670;-80
2022/10/09 12:09:05;;;;;;;2.70;2.00;;;14.20;99.90;;;;;;494386;241;26353;-80
2022/10/09 12:11:07;;;;;;;6.23;2.40;;;14.30;99.90;;;;;;494398;241;28188;-80
2022/10/09 12:13:08;;;;;;;3.90;2.37;;;14.40;99.90;;;;;;494037;241;28195;-79
2022/10/09 12:15:09;;;;;;;4.20;2.33;;;14.40;99.90;;;;;;494055;241;28299;-80
2022/10/09 12:17:12;;;;;;;3.07;2.37;;;;;;;;;;494060;240;28213;-80
2022/10/09 12:19:13;;;;;;;4.20;2.33;;;14.20;99.90;;;;;;494542;241;26973;-79
2022/10/09 12:21:14;;;;;;;3.63;2.70;;;14.20;99.90;;;;;;494347;241;28543;-80
2022/10/09 12:23:15;;;;;;;4.90;2.60;;;14.20;99.90;;;;;;494412;241;28056;-79